sensor_id;sensor_type;location;lat;lon;timestamp;temperature;humidity
47168;DHT22;32931;47.778;17.806;2024-01-07T00:00:03;8.50;99.90
47168;DHT22;32931;47.778;17.806;2024-01-07T00:02:30;8.60;99.90
47168;DHT22;32931;47.778;17.806;2024-01-07T00:04:57;8.60;99.90
47168;DHT22;32931;47.778;17.806;2024-01-07T00:07:23;8.50;99.90
47168;DHT22;32931;47.778;17.806;2024-01-07T00:09:49;8.50;99.90
47168;DHT22;32931;47.778;17.806;2024-01-07T00:12:16;8.50;99.90
47168;DHT22;32931;47.778;17.806;2024-01-07T00:14:43;8.50;99.90
47168;DHT22;32931;47.778;17.806;2024-01-07T00:17:10;8.50;99.90
47168;DHT22;32931;47.778;17.806;2024-01-07T00:19:36;8.50;99.90
47168;DHT22;32931;47.778;17.806;2024-01-07T00:22:04;8.50;99.90
47168;DHT22;32931;47.778;17.806;2024-01-07T00:24:31;8.50;99.90
47168;DHT22;32931;47.778;17.806;2024-01-07T00:26:57;8.50;99.90
47168;DHT22;32931;47.778;17.806;2024-01-07T00:29:23;8.50;99.90
47168;DHT22;32931;47.778;17.806;2024-01-07T00:31:49;8.50;99.90
47168;DHT22;32931;47.778;17.806;2024-01-07T00:34:15;8.50;99.90
47168;DHT22;32931;47.778;17.806;2024-01-07T00:36:41;8.50;99.90
47168;DHT22;32931;47.778;17.806;2024-01-07T00:39:07;8.50;99.90
47168;DHT22;32931;47.778;17.806;2024-01-07T00:41:33;8.50;99.90
47168;DHT22;32931;47.778;17.806;2024-01-07T00:44:00;8.50;99.90
47168;DHT22;32931;47.778;17.806;2024-01-07T00:46:26;8.50;99.90
47168;DHT22;32931;47.778;17.806;2024-01-07T00:48:52;8.50;99.90
47168;DHT22;32931;47.778;17.806;2024-01-07T00:51:18;8.60;99.90
47168;DHT22;32931;47.778;17.806;2024-01-07T00:53:44;8.50;99.90
47168;DHT22;32931;47.778;17.806;2024-01-07T00:56:10;8.60;99.90
47168;DHT22;32931;47.778;17.806;2024-01-07T00:58:37;8.50;99.90
47168;DHT22;32931;47.778;17.806;2024-01-07T01:01:03;8.50;99.90
47168;DHT22;32931;47.778;17.806;2024-01-07T01:03:29;8.50;99.90
47168;DHT22;32931;47.778;17.806;2024-01-07T01:05:55;8.50;99.90
47168;DHT22;32931;47.778;17.806;2024-01-07T01:08:21;8.50;99.90
47168;DHT22;32931;47.778;17.806;2024-01-07T01:10:49;8.50;99.90
47168;DHT22;32931;47.778;17.806;2024-01-07T01:13:15;8.40;99.90
47168;DHT22;32931;47.778;17.806;2024-01-07T01:15:41;8.40;99.90
47168;DHT22;32931;47.778;17.806;2024-01-07T01:18:07;8.40;99.90
47168;DHT22;32931;47.778;17.806;2024-01-07T01:20:33;8.40;99.90
47168;DHT22;32931;47.778;17.806;2024-01-07T01:22:59;8.30;99.90
47168;DHT22;32931;47.778;17.806;2024-01-07T01:25:25;8.30;99.90
47168;DHT22;32931;47.778;17.806;2024-01-07T01:27:53;8.20;99.90
47168;DHT22;32931;47.778;17.806;2024-01-07T01:30:19;8.30;99.90
47168;DHT22;32931;47.778;17.806;2024-01-07T01:32:45;8.20;99.90
47168;DHT22;32931;47.778;17.806;2024-01-07T01:35:11;8.20;99.90
47168;DHT22;32931;47.778;17.806;2024-01-07T01:37:37;8.20;99.90
47168;DHT22;32931;47.778;17.806;2024-01-07T01:40:04;8.10;99.90
47168;DHT22;32931;47.778;17.806;2024-01-07T01:42:30;8.00;99.90
47168;DHT22;32931;47.778;17.806;2024-01-07T01:44:56;8.00;99.90
47168;DHT22;32931;47.778;17.806;2024-01-07T01:47:25;8.00;99.90
47168;DHT22;32931;47.778;17.806;2024-01-07T01:49:52;8.00;99.90
47168;DHT22;32931;47.778;17.806;2024-01-07T01:52:18;7.90;99.90
47168;DHT22;32931;47.778;17.806;2024-01-07T01:54:45;7.90;99.90
47168;DHT22;32931;47.778;17.806;2024-01-07T01:57:15;7.80;99.90
47168;DHT22;32931;47.778;17.806;2024-01-07T01:59:45;7.80;99.90
47168;DHT22;32931;47.778;17.806;2024-01-07T02:02:11;7.80;99.90
47168;DHT22;32931;47.778;17.806;2024-01-07T02:04:37;7.70;99.90
47168;DHT22;32931;47.778;17.806;2024-01-07T02:07:03;7.70;99.90
47168;DHT22;32931;47.778;17.806;2024-01-07T02:09:30;7.60;99.90
47168;DHT22;32931;47.778;17.806;2024-01-07T02:12:05;7.60;99.90
47168;DHT22;32931;47.778;17.806;2024-01-07T02:14:32;7.70;99.90
47168;DHT22;32931;47.778;17.806;2024-01-07T02:16:58;7.60;99.90
47168;DHT22;32931;47.778;17.806;2024-01-07T02:19:25;7.60;99.90
47168;DHT22;32931;47.778;17.806;2024-01-07T02:21:51;7.50;99.90
47168;DHT22;32931;47.778;17.806;2024-01-07T02:24:18;7.40;99.90
47168;DHT22;32931;47.778;17.806;2024-01-07T02:26:44;7.40;99.90
47168;DHT22;32931;47.778;17.806;2024-01-07T02:29:10;7.30;99.90
47168;DHT22;32931;47.778;17.806;2024-01-07T02:31:36;7.30;99.90
47168;DHT22;32931;47.778;17.806;2024-01-07T02:34:02;7.30;99.90
47168;DHT22;32931;47.778;17.806;2024-01-07T02:36:28;7.20;99.90
47168;DHT22;32931;47.778;17.806;2024-01-07T02:38:54;7.20;99.90
47168;DHT22;32931;47.778;17.806;2024-01-07T02:41:21;7.20;99.90
47168;DHT22;32931;47.778;17.806;2024-01-07T02:43:51;7.20;99.90
47168;DHT22;32931;47.778;17.806;2024-01-07T02:46:17;7.20;99.90
47168;DHT22;32931;47.778;17.806;2024-01-07T02:48:43;7.20;99.90
47168;DHT22;32931;47.778;17.806;2024-01-07T02:51:09;7.10;99.90
47168;DHT22;32931;47.778;17.806;2024-01-07T02:53:35;7.10;99.90
47168;DHT22;32931;47.778;17.806;2024-01-07T02:56:02;7.10;99.90
47168;DHT22;32931;47.778;17.806;2024-01-07T02:58:28;7.00;99.90
47168;DHT22;32931;47.778;17.806;2024-01-07T03:00:54;7.00;99.90
47168;DHT22;32931;47.778;17.806;2024-01-07T03:03:20;6.90;99.90
47168;DHT22;32931;47.778;17.806;2024-01-07T03:05:46;6.90;99.90
47168;DHT22;32931;47.778;17.806;2024-01-07T03:08:12;6.90;99.90
47168;DHT22;32931;47.778;17.806;2024-01-07T03:10:38;6.90;99.90
47168;DHT22;32931;47.778;17.806;2024-01-07T03:13:05;6.90;99.90
47168;DHT22;32931;47.778;17.806;2024-01-07T03:15:31;6.80;99.90
47168;DHT22;32931;47.778;17.806;2024-01-07T03:17:57;6.80;99.90
47168;DHT22;32931;47.778;17.806;2024-01-07T03:20:23;6.70;99.90
47168;DHT22;32931;47.778;17.806;2024-01-07T03:22:49;6.70;99.90
47168;DHT22;32931;47.778;17.806;2024-01-07T03:25:16;6.70;99.90
47168;DHT22;32931;47.778;17.806;2024-01-07T03:27:42;6.60;99.90
47168;DHT22;32931;47.778;17.806;2024-01-07T03:30:08;6.60;99.90
47168;DHT22;32931;47.778;17.806;2024-01-07T03:32:35;6.60;99.90
47168;DHT22;32931;47.778;17.806;2024-01-07T03:35:02;6.50;99.90
47168;DHT22;32931;47.778;17.806;2024-01-07T03:37:28;6.50;99.90
47168;DHT22;32931;47.778;17.806;2024-01-07T03:39:54;6.50;99.90
47168;DHT22;32931;47.778;17.806;2024-01-07T03:42:21;6.50;99.90
47168;DHT22;32931;47.778;17.806;2024-01-07T03:44:47;6.40;99.90
47168;DHT22;32931;47.778;17.806;2024-01-07T03:47:13;6.40;99.90
47168;DHT22;32931;47.778;17.806;2024-01-07T03:49:39;6.40;99.90
47168;DHT22;32931;47.778;17.806;2024-01-07T03:52:06;6.40;99.90
47168;DHT22;32931;47.778;17.806;2024-01-07T03:54:32;6.30;99.90
47168;DHT22;32931;47.778;17.806;2024-01-07T03:56:59;6.30;99.90
47168;DHT22;32931;47.778;17.806;2024-01-07T03:59:25;6.20;99.90
47168;DHT22;32931;47.778;17.806;2024-01-07T04:01:56;6.20;99.90
47168;DHT22;32931;47.778;17.806;2024-01-07T04:04:23;6.10;99.90
47168;DHT22;32931;47.778;17.806;2024-01-07T04:06:49;6.10;99.90
47168;DHT22;32931;47.778;17.806;2024-01-07T04:09:15;6.10;99.90
47168;DHT22;32931;47.778;17.806;2024-01-07T04:11:42;6.10;99.90
47168;DHT22;32931;47.778;17.806;2024-01-07T04:14:08;6.00;99.90
47168;DHT22;32931;47.778;17.806;2024-01-07T04:16:35;6.00;99.90
47168;DHT22;32931;47.778;17.806;2024-01-07T04:19:01;5.90;99.90
47168;DHT22;32931;47.778;17.806;2024-01-07T04:21:27;5.90;99.90
47168;DHT22;32931;47.778;17.806;2024-01-07T04:23:53;5.80;99.90
47168;DHT22;32931;47.778;17.806;2024-01-07T04:26:19;5.80;99.90
47168;DHT22;32931;47.778;17.806;2024-01-07T04:28:46;5.80;99.90
47168;DHT22;32931;47.778;17.806;2024-01-07T04:31:12;5.80;99.90
47168;DHT22;32931;47.778;17.806;2024-01-07T04:33:38;5.80;99.90
47168;DHT22;32931;47.778;17.806;2024-01-07T04:36:04;5.80;99.90
47168;DHT22;32931;47.778;17.806;2024-01-07T04:38:31;5.70;99.90
47168;DHT22;32931;47.778;17.806;2024-01-07T04:40:57;5.70;99.90
47168;DHT22;32931;47.778;17.806;2024-01-07T04:43:23;5.60;99.90
47168;DHT22;32931;47.778;17.806;2024-01-07T04:45:49;5.60;99.90
47168;DHT22;32931;47.778;17.806;2024-01-07T04:48:15;5.60;99.90
47168;DHT22;32931;47.778;17.806;2024-01-07T04:50:41;5.50;99.90
47168;DHT22;32931;47.778;17.806;2024-01-07T04:53:10;5.50;99.90
47168;DHT22;32931;47.778;17.806;2024-01-07T04:55:36;5.50;99.90
47168;DHT22;32931;47.778;17.806;2024-01-07T04:58:03;5.50;99.90
47168;DHT22;32931;47.778;17.806;2024-01-07T05:00:30;5.40;99.90
47168;DHT22;32931;47.778;17.806;2024-01-07T05:02:56;5.30;99.90
47168;DHT22;32931;47.778;17.806;2024-01-07T05:05:22;5.40;99.90
47168;DHT22;32931;47.778;17.806;2024-01-07T05:07:49;5.30;99.90
47168;DHT22;32931;47.778;17.806;2024-01-07T05:10:15;5.30;99.90
47168;DHT22;32931;47.778;17.806;2024-01-07T05:12:41;5.30;99.90
47168;DHT22;32931;47.778;17.806;2024-01-07T05:15:07;5.30;99.90
47168;DHT22;32931;47.778;17.806;2024-01-07T05:17:34;5.20;99.90
47168;DHT22;32931;47.778;17.806;2024-01-07T05:20:00;5.20;99.90
47168;DHT22;32931;47.778;17.806;2024-01-07T05:22:26;5.20;99.90
47168;DHT22;32931;47.778;17.806;2024-01-07T05:24:53;5.10;99.90
47168;DHT22;32931;47.778;17.806;2024-01-07T05:27:19;5.10;99.90
47168;DHT22;32931;47.778;17.806;2024-01-07T05:29:45;5.10;99.90
47168;DHT22;32931;47.778;17.806;2024-01-07T05:32:15;5.10;99.90
47168;DHT22;32931;47.778;17.806;2024-01-07T05:34:41;5.10;99.90
47168;DHT22;32931;47.778;17.806;2024-01-07T05:37:07;5.10;99.90
47168;DHT22;32931;47.778;17.806;2024-01-07T05:39:33;5.00;99.90
47168;DHT22;32931;47.778;17.806;2024-01-07T05:41:59;5.00;99.90
47168;DHT22;32931;47.778;17.806;2024-01-07T05:44:25;5.00;99.90
47168;DHT22;32931;47.778;17.806;2024-01-07T05:46:51;5.00;99.90
47168;DHT22;32931;47.778;17.806;2024-01-07T05:49:18;4.90;99.90
47168;DHT22;32931;47.778;17.806;2024-01-07T05:51:44;5.00;99.90
47168;DHT22;32931;47.778;17.806;2024-01-07T05:54:10;4.90;99.90
47168;DHT22;32931;47.778;17.806;2024-01-07T05:56:39;4.90;99.90
47168;DHT22;32931;47.778;17.806;2024-01-07T05:59:07;4.90;99.90
47168;DHT22;32931;47.778;17.806;2024-01-07T06:01:33;4.80;99.90
47168;DHT22;32931;47.778;17.806;2024-01-07T06:04:01;4.80;99.90
47168;DHT22;32931;47.778;17.806;2024-01-07T06:06:27;4.80;99.90
47168;DHT22;32931;47.778;17.806;2024-01-07T06:08:53;4.80;99.90
47168;DHT22;32931;47.778;17.806;2024-01-07T06:11:19;4.80;99.90
47168;DHT22;32931;47.778;17.806;2024-01-07T06:13:46;4.80;99.90
47168;DHT22;32931;47.778;17.806;2024-01-07T06:16:12;4.70;99.90
47168;DHT22;32931;47.778;17.806;2024-01-07T06:18:39;4.70;99.90
47168;DHT22;32931;47.778;17.806;2024-01-07T06:21:05;4.80;99.90
47168;DHT22;32931;47.778;17.806;2024-01-07T06:23:33;4.70;99.90
47168;DHT22;32931;47.778;17.806;2024-01-07T06:25:59;4.60;99.90
47168;DHT22;32931;47.778;17.806;2024-01-07T06:28:25;4.60;99.90
47168;DHT22;32931;47.778;17.806;2024-01-07T06:30:51;4.60;99.90
47168;DHT22;32931;47.778;17.806;2024-01-07T06:33:17;4.60;99.90
47168;DHT22;32931;47.778;17.806;2024-01-07T06:35:44;4.50;99.90
47168;DHT22;32931;47.778;17.806;2024-01-07T06:38:11;4.50;99.90
47168;DHT22;32931;47.778;17.806;2024-01-07T06:40:37;4.50;99.90
47168;DHT22;32931;47.778;17.806;2024-01-07T06:43:03;4.50;99.90
47168;DHT22;32931;47.778;17.806;2024-01-07T06:45:29;4.50;99.90
47168;DHT22;32931;47.778;17.806;2024-01-07T06:47:55;4.40;99.90
47168;DHT22;32931;47.778;17.806;2024-01-07T06:50:21;4.40;99.90
47168;DHT22;32931;47.778;17.806;2024-01-07T06:52:47;4.40;99.90
47168;DHT22;32931;47.778;17.806;2024-01-07T06:55:13;4.40;99.90
47168;DHT22;32931;47.778;17.806;2024-01-07T06:57:40;4.40;99.90
47168;DHT22;32931;47.778;17.806;2024-01-07T07:00:06;4.40;99.90
47168;DHT22;32931;47.778;17.806;2024-01-07T07:02:33;4.30;99.90
47168;DHT22;32931;47.778;17.806;2024-01-07T07:04:59;4.30;99.90
47168;DHT22;32931;47.778;17.806;2024-01-07T07:07:25;4.30;99.90
47168;DHT22;32931;47.778;17.806;2024-01-07T07:09:52;4.30;99.90
47168;DHT22;32931;47.778;17.806;2024-01-07T07:12:18;4.30;99.90
47168;DHT22;32931;47.778;17.806;2024-01-07T07:14:44;4.30;99.90
47168;DHT22;32931;47.778;17.806;2024-01-07T07:17:10;4.10;99.90
47168;DHT22;32931;47.778;17.806;2024-01-07T07:19:36;4.20;99.90
47168;DHT22;32931;47.778;17.806;2024-01-07T07:22:03;4.20;99.90
47168;DHT22;32931;47.778;17.806;2024-01-07T07:24:30;4.20;99.90
47168;DHT22;32931;47.778;17.806;2024-01-07T07:26:56;4.20;99.90
47168;DHT22;32931;47.778;17.806;2024-01-07T07:29:22;4.10;99.90
47168;DHT22;32931;47.778;17.806;2024-01-07T07:31:48;4.10;99.90
47168;DHT22;32931;47.778;17.806;2024-01-07T07:34:14;4.10;99.90
47168;DHT22;32931;47.778;17.806;2024-01-07T07:36:40;4.10;99.90
47168;DHT22;32931;47.778;17.806;2024-01-07T07:39:08;4.10;99.90
47168;DHT22;32931;47.778;17.806;2024-01-07T07:41:35;4.10;99.90
47168;DHT22;32931;47.778;17.806;2024-01-07T07:44:01;4.10;99.90
47168;DHT22;32931;47.778;17.806;2024-01-07T07:46:27;4.00;99.90
47168;DHT22;32931;47.778;17.806;2024-01-07T07:48:53;4.00;99.90
47168;DHT22;32931;47.778;17.806;2024-01-07T07:51:19;3.90;99.90
47168;DHT22;32931;47.778;17.806;2024-01-07T07:53:46;3.90;99.90
47168;DHT22;32931;47.778;17.806;2024-01-07T07:56:12;3.90;99.90
47168;DHT22;32931;47.778;17.806;2024-01-07T07:58:38;3.80;99.90
47168;DHT22;32931;47.778;17.806;2024-01-07T08:01:05;3.90;99.90
47168;DHT22;32931;47.778;17.806;2024-01-07T08:03:32;3.90;99.90
47168;DHT22;32931;47.778;17.806;2024-01-07T08:05:58;3.90;99.90
47168;DHT22;32931;47.778;17.806;2024-01-07T08:08:24;3.90;99.90
47168;DHT22;32931;47.778;17.806;2024-01-07T08:10:50;3.80;99.90
47168;DHT22;32931;47.778;17.806;2024-01-07T08:13:16;3.80;99.90
47168;DHT22;32931;47.778;17.806;2024-01-07T08:15:43;3.80;99.90
47168;DHT22;32931;47.778;17.806;2024-01-07T08:18:09;3.80;99.90
47168;DHT22;32931;47.778;17.806;2024-01-07T08:20:35;3.70;99.90
47168;DHT22;32931;47.778;17.806;2024-01-07T08:23:02;3.70;99.90
47168;DHT22;32931;47.778;17.806;2024-01-07T08:25:28;3.70;99.90
47168;DHT22;32931;47.778;17.806;2024-01-07T08:27:54;3.70;99.90
47168;DHT22;32931;47.778;17.806;2024-01-07T08:30:20;3.70;99.90
47168;DHT22;32931;47.778;17.806;2024-01-07T08:32:47;3.70;99.90
47168;DHT22;32931;47.778;17.806;2024-01-07T08:35:13;3.60;99.90
47168;DHT22;32931;47.778;17.806;2024-01-07T08:37:39;3.60;99.90
47168;DHT22;32931;47.778;17.806;2024-01-07T08:40:05;3.60;99.90
47168;DHT22;32931;47.778;17.806;2024-01-07T08:42:36;3.60;99.90
47168;DHT22;32931;47.778;17.806;2024-01-07T08:45:02;3.70;99.90
47168;DHT22;32931;47.778;17.806;2024-01-07T08:47:30;3.60;99.90
47168;DHT22;32931;47.778;17.806;2024-01-07T08:49:57;3.60;99.90
47168;DHT22;32931;47.778;17.806;2024-01-07T08:52:24;3.60;99.90
47168;DHT22;32931;47.778;17.806;2024-01-07T08:54:50;3.50;99.90
47168;DHT22;32931;47.778;17.806;2024-01-07T08:57:16;3.60;99.90
47168;DHT22;32931;47.778;17.806;2024-01-07T08:59:42;3.60;99.90
47168;DHT22;32931;47.778;17.806;2024-01-07T09:02:08;3.60;99.90
47168;DHT22;32931;47.778;17.806;2024-01-07T09:04:35;3.50;99.90
47168;DHT22;32931;47.778;17.806;2024-01-07T09:07:01;3.50;99.90
47168;DHT22;32931;47.778;17.806;2024-01-07T09:09:27;3.50;99.90
47168;DHT22;32931;47.778;17.806;2024-01-07T09:11:53;3.40;99.90
47168;DHT22;32931;47.778;17.806;2024-01-07T09:14:22;3.40;99.90
47168;DHT22;32931;47.778;17.806;2024-01-07T09:16:48;3.40;99.90
47168;DHT22;32931;47.778;17.806;2024-01-07T09:19:14;3.40;99.90
47168;DHT22;32931;47.778;17.806;2024-01-07T09:21:40;3.40;99.90
47168;DHT22;32931;47.778;17.806;2024-01-07T09:24:06;3.40;99.90
47168;DHT22;32931;47.778;17.806;2024-01-07T09:26:34;3.40;99.90
47168;DHT22;32931;47.778;17.806;2024-01-07T09:29:00;3.40;99.90
47168;DHT22;32931;47.778;17.806;2024-01-07T09:31:27;3.40;99.90
47168;DHT22;32931;47.778;17.806;2024-01-07T09:33:53;3.30;99.90
47168;DHT22;32931;47.778;17.806;2024-01-07T09:36:19;3.30;99.90
47168;DHT22;32931;47.778;17.806;2024-01-07T09:38:45;3.20;99.90
47168;DHT22;32931;47.778;17.806;2024-01-07T09:41:11;3.30;99.90
47168;DHT22;32931;47.778;17.806;2024-01-07T09:43:38;3.20;99.90
47168;DHT22;32931;47.778;17.806;2024-01-07T09:46:04;3.20;99.90
47168;DHT22;32931;47.778;17.806;2024-01-07T09:48:30;3.20;99.90
47168;DHT22;32931;47.778;17.806;2024-01-07T09:50:57;3.10;99.90
47168;DHT22;32931;47.778;17.806;2024-01-07T09:53:25;3.20;99.90
47168;DHT22;32931;47.778;17.806;2024-01-07T09:56:20;3.10;99.90
47168;DHT22;32931;47.778;17.806;2024-01-07T09:58:47;3.10;99.90
47168;DHT22;32931;47.778;17.806;2024-01-07T10:01:19;3.10;99.90
47168;DHT22;32931;47.778;17.806;2024-01-07T10:03:46;3.10;99.90
47168;DHT22;32931;47.778;17.806;2024-01-07T10:06:12;3.10;99.90
47168;DHT22;32931;47.778;17.806;2024-01-07T10:08:39;3.10;99.90
47168;DHT22;32931;47.778;17.806;2024-01-07T10:11:05;3.10;99.90
47168;DHT22;32931;47.778;17.806;2024-01-07T10:13:32;3.20;99.90
47168;DHT22;32931;47.778;17.806;2024-01-07T10:15:58;3.10;99.90
47168;DHT22;32931;47.778;17.806;2024-01-07T10:18:25;3.10;99.90
47168;DHT22;32931;47.778;17.806;2024-01-07T10:20:53;3.10;99.90
47168;DHT22;32931;47.778;17.806;2024-01-07T10:23:21;3.10;99.90
47168;DHT22;32931;47.778;17.806;2024-01-07T10:25:48;3.00;99.90
47168;DHT22;32931;47.778;17.806;2024-01-07T10:28:14;3.10;99.90
47168;DHT22;32931;47.778;17.806;2024-01-07T10:30:49;3.10;99.90
47168;DHT22;32931;47.778;17.806;2024-01-07T10:33:17;3.00;99.90
47168;DHT22;32931;47.778;17.806;2024-01-07T10:35:52;3.00;99.90
47168;DHT22;32931;47.778;17.806;2024-01-07T10:38:19;3.00;99.90
47168;DHT22;32931;47.778;17.806;2024-01-07T10:40:49;3.00;99.90
47168;DHT22;32931;47.778;17.806;2024-01-07T10:43:16;3.00;99.90
47168;DHT22;32931;47.778;17.806;2024-01-07T10:45:46;3.00;99.90
47168;DHT22;32931;47.778;17.806;2024-01-07T10:48:17;2.90;99.90
47168;DHT22;32931;47.778;17.806;2024-01-07T10:50:45;2.80;99.90
47168;DHT22;32931;47.778;17.806;2024-01-07T10:53:18;2.90;99.90
47168;DHT22;32931;47.778;17.806;2024-01-07T10:55:54;2.90;99.90
47168;DHT22;32931;47.778;17.806;2024-01-07T10:58:23;2.90;99.90
47168;DHT22;32931;47.778;17.806;2024-01-07T11:00:50;2.90;99.90
47168;DHT22;32931;47.778;17.806;2024-01-07T11:06:01;2.90;99.90
47168;DHT22;32931;47.778;17.806;2024-01-07T11:08:45;2.80;99.90
47168;DHT22;32931;47.778;17.806;2024-01-07T11:11:19;2.70;99.90
47168;DHT22;32931;47.778;17.806;2024-01-07T11:13:49;2.80;99.90
47168;DHT22;32931;47.778;17.806;2024-01-07T11:16:44;2.80;99.90
47168;DHT22;32931;47.778;17.806;2024-01-07T11:19:13;2.80;99.90
47168;DHT22;32931;47.778;17.806;2024-01-07T11:21:50;2.90;99.90
47168;DHT22;32931;47.778;17.806;2024-01-07T11:24:39;2.90;99.90
47168;DHT22;32931;47.778;17.806;2024-01-07T11:27:09;2.90;99.90
47168;DHT22;32931;47.778;17.806;2024-01-07T11:29:43;2.90;99.90
47168;DHT22;32931;47.778;17.806;2024-01-07T11:32:23;2.90;99.90
47168;DHT22;32931;47.778;17.806;2024-01-07T11:34:52;2.80;99.90
47168;DHT22;32931;47.778;17.806;2024-01-07T11:37:19;2.80;99.90
47168;DHT22;32931;47.778;17.806;2024-01-07T11:39:47;2.70;99.90
47168;DHT22;32931;47.778;17.806;2024-01-07T11:42:15;2.80;99.90
47168;DHT22;32931;47.778;17.806;2024-01-07T11:44:54;2.70;99.90
47168;DHT22;32931;47.778;17.806;2024-01-07T11:47:23;2.70;99.90
47168;DHT22;32931;47.778;17.806;2024-01-07T11:49:50;2.70;99.90
47168;DHT22;32931;47.778;17.806;2024-01-07T11:52:16;2.70;99.90
47168;DHT22;32931;47.778;17.806;2024-01-07T11:54:44;2.70;99.90
47168;DHT22;32931;47.778;17.806;2024-01-07T11:57:12;2.70;99.90
47168;DHT22;32931;47.778;17.806;2024-01-07T11:59:40;2.60;99.90
47168;DHT22;32931;47.778;17.806;2024-01-07T12:02:08;2.60;99.90
47168;DHT22;32931;47.778;17.806;2024-01-07T12:04:35;2.60;99.90
47168;DHT22;32931;47.778;17.806;2024-01-07T12:07:01;2.60;99.90
47168;DHT22;32931;47.778;17.806;2024-01-07T12:09:29;2.50;99.90
47168;DHT22;32931;47.778;17.806;2024-01-07T12:11:56;2.50;99.90
47168;DHT22;32931;47.778;17.806;2024-01-07T12:14:22;2.50;99.90
47168;DHT22;32931;47.778;17.806;2024-01-07T12:16:48;2.40;99.90
47168;DHT22;32931;47.778;17.806;2024-01-07T12:19:15;2.40;99.90
47168;DHT22;32931;47.778;17.806;2024-01-07T12:21:41;2.40;99.90
47168;DHT22;32931;47.778;17.806;2024-01-07T12:24:07;2.40;99.90
47168;DHT22;32931;47.778;17.806;2024-01-07T12:26:33;2.50;99.90
47168;DHT22;32931;47.778;17.806;2024-01-07T12:29:00;2.40;99.90
47168;DHT22;32931;47.778;17.806;2024-01-07T12:31:33;2.40;99.90
47168;DHT22;32931;47.778;17.806;2024-01-07T12:34:00;2.40;99.90
47168;DHT22;32931;47.778;17.806;2024-01-07T12:36:30;2.40;99.90
47168;DHT22;32931;47.778;17.806;2024-01-07T12:38:56;2.40;99.90
47168;DHT22;32931;47.778;17.806;2024-01-07T12:41:23;2.40;99.90
47168;DHT22;32931;47.778;17.806;2024-01-07T12:43:50;2.40;99.90
47168;DHT22;32931;47.778;17.806;2024-01-07T12:46:16;2.40;99.90
47168;DHT22;32931;47.778;17.806;2024-01-07T12:48:44;2.30;99.90
47168;DHT22;32931;47.778;17.806;2024-01-07T12:51:10;2.30;99.90
47168;DHT22;32931;47.778;17.806;2024-01-07T12:53:37;2.30;99.90
47168;DHT22;32931;47.778;17.806;2024-01-07T12:56:03;2.20;99.90
47168;DHT22;32931;47.778;17.806;2024-01-07T12:58:29;2.30;99.90
47168;DHT22;32931;47.778;17.806;2024-01-07T13:00:55;2.10;99.90
47168;DHT22;32931;47.778;17.806;2024-01-07T13:03:21;2.20;99.90
47168;DHT22;32931;47.778;17.806;2024-01-07T13:05:48;2.10;99.90
47168;DHT22;32931;47.778;17.806;2024-01-07T13:08:17;2.20;99.90
47168;DHT22;32931;47.778;17.806;2024-01-07T13:10:48;2.10;99.90
47168;DHT22;32931;47.778;17.806;2024-01-07T13:13:14;2.10;99.90
47168;DHT22;32931;47.778;17.806;2024-01-07T13:15:40;2.10;99.90
47168;DHT22;32931;47.778;17.806;2024-01-07T13:18:07;2.10;99.90
47168;DHT22;32931;47.778;17.806;2024-01-07T13:20:33;2.10;99.90
47168;DHT22;32931;47.778;17.806;2024-01-07T13:23:01;2.10;99.90
47168;DHT22;32931;47.778;17.806;2024-01-07T13:25:29;2.10;99.90
47168;DHT22;32931;47.778;17.806;2024-01-07T13:27:55;2.00;99.90
47168;DHT22;32931;47.778;17.806;2024-01-07T13:30:21;2.00;99.90
47168;DHT22;32931;47.778;17.806;2024-01-07T13:32:47;2.00;99.90
47168;DHT22;32931;47.778;17.806;2024-01-07T13:35:15;2.00;99.90
47168;DHT22;32931;47.778;17.806;2024-01-07T13:37:42;2.00;99.90
47168;DHT22;32931;47.778;17.806;2024-01-07T13:40:09;2.00;99.90
47168;DHT22;32931;47.778;17.806;2024-01-07T13:42:39;2.00;99.90
47168;DHT22;32931;47.778;17.806;2024-01-07T13:45:05;1.90;99.90
47168;DHT22;32931;47.778;17.806;2024-01-07T13:47:32;2.00;99.90
47168;DHT22;32931;47.778;17.806;2024-01-07T13:49:58;2.00;99.90
47168;DHT22;32931;47.778;17.806;2024-01-07T13:52:24;1.90;99.90
47168;DHT22;32931;47.778;17.806;2024-01-07T13:54:50;1.90;99.90
47168;DHT22;32931;47.778;17.806;2024-01-07T13:57:16;1.90;99.90
47168;DHT22;32931;47.778;17.806;2024-01-07T13:59:42;1.90;99.90
47168;DHT22;32931;47.778;17.806;2024-01-07T14:02:08;1.90;99.90
47168;DHT22;32931;47.778;17.806;2024-01-07T14:04:35;1.90;99.90
47168;DHT22;32931;47.778;17.806;2024-01-07T14:07:01;1.90;99.90
47168;DHT22;32931;47.778;17.806;2024-01-07T14:09:27;1.80;99.90
47168;DHT22;32931;47.778;17.806;2024-01-07T14:11:58;1.90;99.90
47168;DHT22;32931;47.778;17.806;2024-01-07T14:14:24;1.80;99.90
47168;DHT22;32931;47.778;17.806;2024-01-07T14:16:50;1.80;99.90
47168;DHT22;32931;47.778;17.806;2024-01-07T14:19:16;1.80;99.90
47168;DHT22;32931;47.778;17.806;2024-01-07T14:21:42;1.80;99.90
47168;DHT22;32931;47.778;17.806;2024-01-07T14:24:09;1.70;99.90
47168;DHT22;32931;47.778;17.806;2024-01-07T14:26:35;1.70;99.90
47168;DHT22;32931;47.778;17.806;2024-01-07T14:29:01;1.70;99.90
47168;DHT22;32931;47.778;17.806;2024-01-07T14:31:27;1.60;99.90
47168;DHT22;32931;47.778;17.806;2024-01-07T14:33:53;1.60;99.90
47168;DHT22;32931;47.778;17.806;2024-01-07T14:36:19;1.60;99.90
47168;DHT22;32931;47.778;17.806;2024-01-07T14:38:47;1.60;99.90
47168;DHT22;32931;47.778;17.806;2024-01-07T14:41:14;1.60;99.90
47168;DHT22;32931;47.778;17.806;2024-01-07T14:43:41;1.60;99.90
47168;DHT22;32931;47.778;17.806;2024-01-07T14:46:10;1.60;99.90
47168;DHT22;32931;47.778;17.806;2024-01-07T14:48:36;1.50;99.90
47168;DHT22;32931;47.778;17.806;2024-01-07T14:51:02;1.60;99.90
47168;DHT22;32931;47.778;17.806;2024-01-07T14:53:33;1.50;99.90
47168;DHT22;32931;47.778;17.806;2024-01-07T14:56:00;1.50;99.90
47168;DHT22;32931;47.778;17.806;2024-01-07T14:58:26;1.50;99.90
47168;DHT22;32931;47.778;17.806;2024-01-07T15:00:52;1.50;99.90
47168;DHT22;32931;47.778;17.806;2024-01-07T15:03:19;1.50;99.90
47168;DHT22;32931;47.778;17.806;2024-01-07T15:05:49;1.40;99.90
47168;DHT22;32931;47.778;17.806;2024-01-07T15:08:15;1.40;99.90
47168;DHT22;32931;47.778;17.806;2024-01-07T15:10:41;1.40;99.90
47168;DHT22;32931;47.778;17.806;2024-01-07T15:13:08;1.40;99.90
47168;DHT22;32931;47.778;17.806;2024-01-07T15:15:36;1.40;99.90
47168;DHT22;32931;47.778;17.806;2024-01-07T15:18:03;1.30;99.90
47168;DHT22;32931;47.778;17.806;2024-01-07T15:20:30;1.30;99.90
47168;DHT22;32931;47.778;17.806;2024-01-07T15:22:56;1.30;99.90
47168;DHT22;32931;47.778;17.806;2024-01-07T15:25:22;1.30;99.90
47168;DHT22;32931;47.778;17.806;2024-01-07T15:27:48;1.30;99.90
47168;DHT22;32931;47.778;17.806;2024-01-07T15:30:14;1.30;99.90